createdAt,value
2022-10-17T00:01:57.475Z,18.10
2022-10-17T00:04:24.725Z,18.10
2022-10-17T00:06:51.912Z,18.10
2022-10-17T00:09:19.235Z,18.10
2022-10-17T00:11:46.422Z,18.10
2022-10-17T00:14:17.255Z,18.10
2022-10-17T00:16:44.557Z,18.10
2022-10-17T00:19:11.754Z,18.10
2022-10-17T00:21:38.961Z,18.10
2022-10-17T00:24:06.383Z,18.10
2022-10-17T00:26:33.661Z,18.10
2022-10-17T00:29:02.984Z,18.10
2022-10-17T00:31:30.315Z,18.10
2022-10-17T00:33:57.541Z,18.00
2022-10-17T00:36:26.377Z,18.10
2022-10-17T00:38:56.655Z,18.00
2022-10-17T00:41:27.760Z,18.10
2022-10-17T00:44:07.951Z,18.00
2022-10-17T00:46:39.143Z,18.00
2022-10-17T00:49:12.388Z,18.00
2022-10-17T00:51:56.084Z,18.00
2022-10-17T00:54:28.691Z,18.00
2022-10-17T00:56:57.457Z,18.00
2022-10-17T00:59:28.798Z,18.00
2022-10-17T01:02:07.584Z,18.00
2022-10-17T01:04:37.107Z,18.00
2022-10-17T01:07:04.376Z,17.90
2022-10-17T01:09:31.806Z,18.00
2022-10-17T01:12:24.178Z,18.00
2022-10-17T01:15:33.039Z,18.00
2022-10-17T01:18:21.487Z,17.90
2022-10-17T01:21:07.824Z,17.90
2022-10-17T01:24:12.624Z,17.90
2022-10-17T01:27:07.158Z,17.90
2022-10-17T01:30:07.090Z,17.90
2022-10-17T01:32:45.512Z,17.90
2022-10-17T01:35:23.752Z,17.90
2022-10-17T01:38:06.641Z,17.90
2022-10-17T01:40:36.684Z,17.90
2022-10-17T01:43:11.440Z,17.90
2022-10-17T01:45:42.916Z,17.90
2022-10-17T01:48:23.929Z,17.90
2022-10-17T01:51:03.721Z,17.90
2022-10-17T01:53:35.786Z,17.90
2022-10-17T01:56:07.599Z,17.90
2022-10-17T01:58:41.131Z,17.90
2022-10-17T02:01:11.752Z,17.90
2022-10-17T02:03:42.113Z,17.90
2022-10-17T02:06:09.625Z,17.90
2022-10-17T02:08:49.021Z,17.80
2022-10-17T02:11:25.897Z,17.90
2022-10-17T02:14:04.782Z,17.80
2022-10-17T02:16:44.188Z,17.90
2022-10-17T02:19:34.203Z,17.80
2022-10-17T02:22:05.996Z,17.80
2022-10-17T02:24:39.324Z,17.80
2022-10-17T02:27:20.352Z,17.80
2022-10-17T02:29:53.827Z,17.80
2022-10-17T02:32:26.653Z,17.80
2022-10-17T02:34:56.694Z,17.80
2022-10-17T02:37:28.811Z,17.70
2022-10-17T02:39:59.300Z,17.80
2022-10-17T02:42:28.883Z,17.80
2022-10-17T02:45:01.047Z,17.70
2022-10-17T02:47:34.775Z,17.70
2022-10-17T02:50:02.172Z,17.70
2022-10-17T02:52:51.122Z,17.70
2022-10-17T02:55:39.066Z,17.70
2022-10-17T02:58:15.822Z,17.70
2022-10-17T03:00:44.799Z,17.70
2022-10-17T03:03:20.294Z,17.70
2022-10-17T03:05:47.524Z,17.70
2022-10-17T03:08:14.821Z,17.70
2022-10-17T03:10:42.419Z,17.70
2022-10-17T03:13:09.765Z,17.70
2022-10-17T03:15:40.186Z,17.70
2022-10-17T03:18:07.923Z,17.70
2022-10-17T03:20:35.230Z,17.70
2022-10-17T03:23:02.480Z,17.70
2022-10-17T03:25:30.172Z,17.70
2022-10-17T03:28:00.439Z,17.70
2022-10-17T03:30:28.519Z,17.70
2022-10-17T03:32:58.395Z,17.70
2022-10-17T03:35:27.086Z,17.70
2022-10-17T03:37:55.859Z,17.70
2022-10-17T03:40:24.267Z,17.70
2022-10-17T03:42:51.728Z,17.60
2022-10-17T03:45:18.945Z,17.70
2022-10-17T03:47:47.376Z,17.70
2022-10-17T03:50:15.526Z,17.70
2022-10-17T03:52:48.230Z,17.70
2022-10-17T03:55:16.135Z,17.70
2022-10-17T03:57:45.549Z,17.70
2022-10-17T04:00:13.955Z,17.70
2022-10-17T04:02:52.635Z,17.70
2022-10-17T04:05:19.957Z,17.70
2022-10-17T04:07:47.978Z,17.70
2022-10-17T04:10:17.257Z,17.70
2022-10-17T04:12:44.926Z,17.70
2022-10-17T04:15:12.264Z,17.70
2022-10-17T04:17:40.356Z,17.70
2022-10-17T04:20:08.307Z,17.70
2022-10-17T04:22:35.520Z,17.60
2022-10-17T04:25:02.973Z,17.60
2022-10-17T04:27:35.729Z,17.60
2022-10-17T04:30:03.168Z,17.60
2022-10-17T04:32:35.931Z,17.60
2022-10-17T04:35:09.194Z,17.60
2022-10-17T04:37:37.048Z,17.60
2022-10-17T04:40:10.824Z,17.60
2022-10-17T04:42:38.109Z,17.60
2022-10-17T04:45:06.643Z,17.60
2022-10-17T04:47:38.152Z,17.60
2022-10-17T04:50:09.709Z,17.60
2022-10-17T04:52:39.753Z,17.60
2022-10-17T04:55:10.367Z,17.60
2022-10-17T04:57:42.177Z,17.60
2022-10-17T05:00:19.998Z,17.60
2022-10-17T05:02:56.162Z,17.60
2022-10-17T05:05:23.414Z,17.60
2022-10-17T05:07:53.195Z,17.60
2022-10-17T05:10:24.077Z,17.60
2022-10-17T05:12:52.932Z,17.60
2022-10-17T05:15:23.244Z,17.60
2022-10-17T05:17:56.183Z,17.60
2022-10-17T05:20:25.235Z,17.60
2022-10-17T05:22:52.589Z,17.60
2022-10-17T05:25:21.345Z,17.60
2022-10-17T05:27:48.590Z,17.60
2022-10-17T05:30:16.042Z,17.60
2022-10-17T05:32:43.516Z,17.60
2022-10-17T05:35:10.797Z,17.60
2022-10-17T05:37:39.272Z,17.60
2022-10-17T05:40:07.316Z,17.60
2022-10-17T05:42:35.156Z,17.60
2022-10-17T05:45:03.111Z,17.60
2022-10-17T05:47:31.429Z,17.60
2022-10-17T05:49:59.171Z,17.60
2022-10-17T05:52:33.132Z,17.60
2022-10-17T05:55:10.765Z,17.60
2022-10-17T05:57:38.255Z,17.60
2022-10-17T06:00:10.322Z,17.60
2022-10-17T06:02:46.043Z,17.60
2022-10-17T06:05:15.433Z,17.60
2022-10-17T06:07:43.078Z,17.60
2022-10-17T06:10:12.879Z,17.60
2022-10-17T06:12:40.131Z,17.60
2022-10-17T06:15:08.088Z,17.60
2022-10-17T06:17:35.912Z,17.60
2022-10-17T06:20:03.715Z,17.60
2022-10-17T06:22:31.452Z,17.60
2022-10-17T06:25:01.081Z,17.60
2022-10-17T06:27:28.340Z,17.60
2022-10-17T06:29:56.725Z,17.60
2022-10-17T06:32:24.008Z,17.60
2022-10-17T06:34:51.271Z,17.70
2022-10-17T06:37:18.982Z,17.70
2022-10-17T06:39:47.368Z,17.70
2022-10-17T06:42:18.537Z,17.70
2022-10-17T06:45:07.939Z,17.70
2022-10-17T06:47:53.748Z,17.70
2022-10-17T06:50:33.928Z,17.80
2022-10-17T06:53:12.987Z,17.80
2022-10-17T06:55:53.958Z,17.80
2022-10-17T06:58:38.207Z,17.80
2022-10-17T07:01:13.351Z,17.80
2022-10-17T07:03:41.234Z,17.90
2022-10-17T07:06:11.220Z,17.90
2022-10-17T07:08:47.340Z,17.90
2022-10-17T07:11:19.994Z,17.90
2022-10-17T07:13:50.057Z,17.90
2022-10-17T07:16:17.823Z,18.00
2022-10-17T07:18:52.291Z,18.00
2022-10-17T07:21:20.271Z,18.10
2022-10-17T07:23:47.735Z,18.00
2022-10-17T07:26:16.941Z,18.10
2022-10-17T07:28:45.897Z,18.10
2022-10-17T07:31:31.798Z,18.10
2022-10-17T07:34:02.144Z,18.20
2022-10-17T07:36:29.403Z,18.20
2022-10-17T07:38:58.004Z,18.20
2022-10-17T07:41:26.530Z,18.20
2022-10-17T07:43:54.457Z,18.30
2022-10-17T07:46:27.692Z,18.30
2022-10-17T07:48:55.025Z,18.30
2022-10-17T07:51:22.558Z,18.30
2022-10-17T07:53:49.864Z,18.40
2022-10-17T07:56:17.346Z,18.40
2022-10-17T07:58:44.738Z,18.40
2022-10-17T08:01:15.479Z,18.40
2022-10-17T08:03:48.485Z,18.50
2022-10-17T08:06:15.902Z,18.50
2022-10-17T08:08:44.202Z,18.50
2022-10-17T08:11:13.709Z,18.50
2022-10-17T08:13:41.646Z,18.60
2022-10-17T08:16:12.216Z,18.60
2022-10-17T08:18:40.943Z,18.60
2022-10-17T08:21:08.517Z,18.70
2022-10-17T08:23:36.437Z,18.70
2022-10-17T08:26:06.278Z,18.70
2022-10-17T08:28:35.474Z,18.70
2022-10-17T08:31:07.434Z,18.80
2022-10-17T08:33:35.045Z,18.80
2022-10-17T08:36:03.727Z,18.80
2022-10-17T08:38:35.062Z,18.90
2022-10-17T08:41:06.699Z,18.90
2022-10-17T08:43:55.063Z,18.90
2022-10-17T08:46:22.939Z,19.00
2022-10-17T08:48:51.766Z,19.00
2022-10-17T08:51:24.357Z,19.00
2022-10-17T08:54:01.351Z,19.00
2022-10-17T08:56:48.982Z,19.10
2022-10-17T08:59:28.775Z,19.10
2022-10-17T09:02:10.417Z,19.20
2022-10-17T09:05:15.284Z,19.20
2022-10-17T09:08:11.727Z,19.20
2022-10-17T09:11:02.291Z,19.30
2022-10-17T09:16:32.084Z,19.40
2022-10-17T09:19:05.010Z,19.40
2022-10-17T09:22:13.352Z,19.40
2022-10-17T09:24:59.117Z,19.40
2022-10-17T09:27:45.539Z,19.50
2022-10-17T09:30:45.177Z,19.50
2022-10-17T09:33:34.367Z,19.60
2022-10-17T09:36:08.506Z,19.60
2022-10-17T09:38:43.006Z,19.60
2022-10-17T09:41:43.820Z,19.70
2022-10-17T09:44:32.336Z,19.70
2022-10-17T09:47:24.136Z,19.70
2022-10-17T09:49:51.893Z,19.80
2022-10-17T09:52:39.328Z,19.80
2022-10-17T09:55:44.992Z,19.80
2022-10-17T09:58:12.442Z,19.80
2022-10-17T10:00:42.775Z,19.90
2022-10-17T10:03:22.836Z,19.90
2022-10-17T10:06:06.450Z,20.00
2022-10-17T10:08:51.620Z,20.00
2022-10-17T10:11:24.396Z,20.10
2022-10-17T10:13:52.262Z,20.10
2022-10-17T10:16:33.295Z,20.10
2022-10-17T10:19:03.612Z,20.10
2022-10-17T10:21:36.176Z,20.20
2022-10-17T10:24:10.742Z,20.30
2022-10-17T10:26:43.863Z,20.30
2022-10-17T10:29:30.956Z,20.40
2022-10-17T10:35:07.263Z,20.40
2022-10-17T10:37:37.795Z,20.50
2022-10-17T10:40:20.343Z,20.50
2022-10-17T10:42:51.139Z,20.50
2022-10-17T10:48:29.355Z,20.60
2022-10-17T10:51:04.288Z,20.60
2022-10-17T10:53:35.559Z,20.60
2022-10-17T10:56:14.972Z,20.60
2022-10-17T10:58:51.031Z,20.70
2022-10-17T11:01:32.845Z,20.70
2022-10-17T11:04:27.341Z,20.70
2022-10-17T11:07:06.166Z,20.70
2022-10-17T11:10:00.130Z,20.70
2022-10-17T11:12:41.492Z,20.80
2022-10-17T11:15:18.516Z,20.80
2022-10-17T11:18:16.296Z,20.80
2022-10-17T11:21:17.781Z,20.80
2022-10-17T11:23:49.260Z,20.80
2022-10-17T11:26:27.489Z,20.90
2022-10-17T11:28:58.922Z,20.90
2022-10-17T11:31:31.468Z,20.90
2022-10-17T11:34:11.973Z,20.90
2022-10-17T11:36:43.785Z,20.90
2022-10-17T11:39:28.021Z,20.90
2022-10-17T11:42:18.811Z,20.90
2022-10-17T11:44:48.767Z,20.90
2022-10-17T11:47:37.681Z,21.00
2022-10-17T11:53:24.548Z,21.00
2022-10-17T11:55:54.291Z,21.00
2022-10-17T11:58:33.127Z,21.00
2022-10-17T12:01:22.705Z,21.00
2022-10-17T12:03:58.873Z,21.10
2022-10-17T12:06:45.395Z,21.10
2022-10-17T12:09:23.945Z,21.10
2022-10-17T12:11:57.871Z,21.10
2022-10-17T12:14:38.667Z,21.10
2022-10-17T12:17:38.904Z,21.10
2022-10-17T12:20:24.558Z,21.10
2022-10-17T12:23:03.421Z,21.10
2022-10-17T12:25:34.247Z,21.10
2022-10-17T12:28:13.167Z,21.10
2022-10-17T12:30:52.496Z,21.10
2022-10-17T12:33:23.147Z,21.10
2022-10-17T12:35:51.815Z,21.10
2022-10-17T12:38:21.924Z,21.10
2022-10-17T12:40:51.560Z,21.10
2022-10-17T12:43:27.891Z,21.10
2022-10-17T12:45:59.903Z,21.10
2022-10-17T12:48:36.418Z,21.10
2022-10-17T12:51:35.770Z,21.10
2022-10-17T12:54:15.978Z,21.10
2022-10-17T12:56:49.342Z,21.20
2022-10-17T12:59:28.923Z,21.20
2022-10-17T13:02:03.340Z,21.20
2022-10-17T13:04:31.772Z,21.20
2022-10-17T13:07:00.944Z,21.20
2022-10-17T13:09:31.123Z,21.20
2022-10-17T13:12:02.796Z,21.20
2022-10-17T13:14:31.704Z,21.20
2022-10-17T13:17:01.689Z,21.20
2022-10-17T13:19:41.107Z,21.20
2022-10-17T13:22:24.907Z,21.20
2022-10-17T13:25:05.395Z,21.20
2022-10-17T13:27:35.021Z,21.20
2022-10-17T13:30:21.450Z,21.20
2022-10-17T13:32:48.644Z,21.20
2022-10-17T13:35:31.709Z,21.20
2022-10-17T13:38:12.793Z,21.20
2022-10-17T13:40:49.921Z,21.20
2022-10-17T13:43:22.136Z,21.30
2022-10-17T13:45:56.192Z,21.30
2022-10-17T13:48:26.609Z,21.20
2022-10-17T13:51:00.388Z,21.30
2022-10-17T13:53:39.820Z,21.30
2022-10-17T13:56:28.973Z,21.30
2022-10-17T13:59:08.258Z,21.30
2022-10-17T14:01:37.766Z,21.30
2022-10-17T14:04:10.194Z,21.30
2022-10-17T14:06:49.332Z,21.30
2022-10-17T14:09:24.458Z,21.30
2022-10-17T14:12:12.679Z,21.30
2022-10-17T14:15:09.214Z,21.30
2022-10-17T14:17:34.542Z,21.30
2022-10-17T14:20:29.658Z,21.40
2022-10-17T14:23:17.478Z,21.40
2022-10-17T14:25:40.955Z,21.40
2022-10-17T14:28:11.732Z,21.40
2022-10-17T14:30:56.352Z,21.40
2022-10-17T14:33:31.010Z,21.40
2022-10-17T14:36:00.923Z,21.40
2022-10-17T14:38:29.863Z,21.40
2022-10-17T14:41:37.834Z,21.40
2022-10-17T14:44:03.524Z,21.40
2022-10-17T14:46:31.159Z,21.40
2022-10-17T14:49:15.496Z,21.40
2022-10-17T14:52:15.274Z,21.40
2022-10-17T14:54:47.489Z,21.40
2022-10-17T14:57:19.568Z,21.50
2022-10-17T14:59:55.338Z,21.50
2022-10-17T15:02:24.788Z,21.50
2022-10-17T15:04:52.730Z,21.50
2022-10-17T15:07:24.092Z,21.50
2022-10-17T15:09:53.642Z,21.50
2022-10-17T15:12:23.008Z,21.50
2022-10-17T15:14:50.744Z,21.50
2022-10-17T15:17:20.818Z,21.50
2022-10-17T15:19:48.957Z,21.50
2022-10-17T15:22:18.051Z,21.50
2022-10-17T15:24:46.193Z,21.50
2022-10-17T15:27:19.449Z,21.50
2022-10-17T15:29:47.439Z,21.50
2022-10-17T15:32:15.576Z,21.50
2022-10-17T15:34:43.017Z,21.50
2022-10-17T15:37:24.320Z,21.50
2022-10-17T15:39:54.969Z,21.50
2022-10-17T15:42:27.313Z,21.50
2022-10-17T15:44:55.038Z,21.50
2022-10-17T15:47:26.736Z,21.40
2022-10-17T15:49:55.283Z,21.40
2022-10-17T15:52:23.555Z,21.40
2022-10-17T15:54:51.306Z,21.40
2022-10-17T15:57:22.911Z,21.40
2022-10-17T15:59:51.808Z,21.40
2022-10-17T16:02:20.907Z,21.40
2022-10-17T16:04:49.348Z,21.40
2022-10-17T16:07:17.556Z,21.30
2022-10-17T16:09:44.907Z,21.30
2022-10-17T16:14:48.929Z,21.30
2022-10-17T16:17:16.745Z,21.30
2022-10-17T16:19:44.759Z,21.30
2022-10-17T16:22:27.657Z,21.30
2022-10-17T16:24:58.879Z,21.30
2022-10-17T16:27:26.556Z,21.20
2022-10-17T16:29:53.738Z,21.20
2022-10-17T16:32:20.999Z,21.20
2022-10-17T16:34:48.273Z,21.20
2022-10-17T16:37:15.440Z,21.10
2022-10-17T16:39:42.635Z,21.10
2022-10-17T16:42:09.947Z,21.10
2022-10-17T16:44:37.140Z,21.00
2022-10-17T16:47:04.404Z,21.00
2022-10-17T16:49:31.577Z,21.00
2022-10-17T16:51:58.900Z,20.90
2022-10-17T16:54:26.173Z,20.90
2022-10-17T16:56:53.360Z,20.90
2022-10-17T16:59:20.616Z,20.80
2022-10-17T17:01:47.932Z,20.80
2022-10-17T17:04:15.312Z,20.70
2022-10-17T17:06:42.761Z,20.70
2022-10-17T17:09:10.237Z,20.70
2022-10-17T17:11:39.346Z,20.60
2022-10-17T17:14:07.832Z,20.60
2022-10-17T17:16:35.704Z,20.50
2022-10-17T17:19:09.794Z,20.50
2022-10-17T17:21:36.989Z,20.50
2022-10-17T17:24:05.272Z,20.50
2022-10-17T17:26:37.387Z,20.40
2022-10-17T17:29:05.007Z,20.40
2022-10-17T17:31:34.414Z,20.40
2022-10-17T17:34:02.607Z,20.40
2022-10-17T17:36:33.075Z,20.30
2022-10-17T17:39:03.915Z,20.30
2022-10-17T17:41:32.175Z,20.20
2022-10-17T17:44:00.528Z,20.20
2022-10-17T17:46:27.986Z,20.10
2022-10-17T17:48:56.233Z,20.10
2022-10-17T17:51:28.308Z,20.10
2022-10-17T17:53:57.060Z,20.00
2022-10-17T17:56:30.073Z,20.00
2022-10-17T17:59:00.062Z,20.00
2022-10-17T18:01:31.017Z,19.90
2022-10-17T18:03:59.241Z,19.90
2022-10-17T18:06:27.477Z,19.90
2022-10-17T18:08:57.926Z,19.90
2022-10-17T18:11:27.065Z,19.80
2022-10-17T18:14:01.370Z,19.80
2022-10-17T18:16:30.002Z,19.80
2022-10-17T18:19:01.486Z,19.80
2022-10-17T18:21:31.774Z,19.80
2022-10-17T18:24:00.112Z,19.70
2022-10-17T18:26:27.767Z,19.70
2022-10-17T18:28:55.042Z,19.70
2022-10-17T18:31:28.153Z,19.70
2022-10-17T18:33:57.729Z,19.70
2022-10-17T18:36:28.906Z,19.60
2022-10-17T18:38:57.434Z,19.60
2022-10-17T18:41:26.172Z,19.60
2022-10-17T18:43:55.263Z,19.50
2022-10-17T18:46:24.794Z,19.50
2022-10-17T18:48:52.410Z,19.50
2022-10-17T18:51:22.612Z,19.50
2022-10-17T18:53:52.494Z,19.50
2022-10-17T18:56:21.126Z,19.40
2022-10-17T18:58:48.579Z,19.40
2022-10-17T19:01:19.118Z,19.40
2022-10-17T19:03:47.776Z,19.40
2022-10-17T19:06:18.232Z,19.30
2022-10-17T19:08:46.323Z,19.30
2022-10-17T19:11:17.699Z,19.30
2022-10-17T19:16:25.231Z,19.30
2022-10-17T19:18:58.768Z,19.30
2022-10-17T19:21:26.545Z,19.30
2022-10-17T19:23:59.775Z,19.30
2022-10-17T19:26:29.261Z,19.30
2022-10-17T19:28:57.108Z,19.20
2022-10-17T19:31:27.239Z,19.20
2022-10-17T19:33:58.539Z,19.20
2022-10-17T19:36:32.281Z,19.20
2022-10-17T19:39:03.750Z,19.20
2022-10-17T19:41:31.334Z,19.20
2022-10-17T19:44:00.471Z,19.20
2022-10-17T19:46:28.948Z,19.20
2022-10-17T19:48:56.492Z,19.20
2022-10-17T19:51:24.853Z,19.10
2022-10-17T19:53:54.139Z,19.10
2022-10-17T19:56:23.185Z,19.10
2022-10-17T19:58:51.354Z,19.10
2022-10-17T20:01:22.296Z,19.00
2022-10-17T20:03:50.549Z,19.00
2022-10-17T20:06:19.765Z,19.00
2022-10-17T20:08:50.218Z,18.90
2022-10-17T20:11:23.129Z,18.90
2022-10-17T20:13:51.439Z,18.90
2022-10-17T20:16:24.213Z,18.90
2022-10-17T20:18:54.485Z,18.90
2022-10-17T20:21:27.792Z,18.90
2022-10-17T20:23:55.274Z,18.90
2022-10-17T20:26:36.965Z,18.90
2022-10-17T20:29:12.517Z,18.90
2022-10-17T20:31:41.197Z,18.80
2022-10-17T20:34:12.367Z,18.80
2022-10-17T20:36:39.983Z,18.80
2022-10-17T20:39:07.898Z,18.80
2022-10-17T20:41:35.370Z,18.70
2022-10-17T20:44:03.009Z,18.70
2022-10-17T20:46:44.430Z,18.70
2022-10-17T20:49:18.871Z,18.70
2022-10-17T20:51:46.568Z,18.70
2022-10-17T20:54:14.007Z,18.70
2022-10-17T20:56:41.370Z,18.60
2022-10-17T20:59:16.048Z,18.60
2022-10-17T21:01:45.263Z,18.60
2022-10-17T21:04:44.036Z,18.60
2022-10-17T21:07:00.815Z,18.50
2022-10-17T21:09:28.054Z,18.50
2022-10-17T21:11:55.902Z,18.50
2022-10-17T21:14:24.879Z,18.50
2022-10-17T21:16:52.408Z,18.50
2022-10-17T21:19:21.541Z,18.50
2022-10-17T21:21:48.948Z,18.50
2022-10-17T21:24:19.083Z,18.50
2022-10-17T21:26:50.000Z,18.40
2022-10-17T21:29:17.234Z,18.40
2022-10-17T21:31:45.145Z,18.40
2022-10-17T21:34:14.888Z,18.30
2022-10-17T21:36:42.540Z,18.30
2022-10-17T21:39:11.370Z,18.30
2022-10-17T21:41:38.986Z,18.30
2022-10-17T21:44:18.284Z,18.30
2022-10-17T21:46:46.642Z,18.30
2022-10-17T21:49:16.711Z,18.20
2022-10-17T21:51:44.785Z,18.20
2022-10-17T21:54:12.230Z,18.20
2022-10-17T21:56:40.190Z,18.20
2022-10-17T21:59:07.952Z,18.20
2022-10-17T22:01:41.367Z,18.20
2022-10-17T22:04:12.144Z,18.20
2022-10-17T22:06:41.352Z,18.20
2022-10-17T22:09:19.031Z,18.10
2022-10-17T22:11:48.434Z,18.10
2022-10-17T22:14:19.723Z,18.10
2022-10-17T22:16:48.924Z,18.10
2022-10-17T22:19:19.852Z,18.10
2022-10-17T22:21:47.466Z,18.10
2022-10-17T22:24:16.418Z,18.10
2022-10-17T22:26:44.569Z,18.10
2022-10-17T22:29:12.399Z,18.10
2022-10-17T22:31:40.259Z,18.10
2022-10-17T22:34:08.459Z,18.10
2022-10-17T22:36:36.306Z,18.10
2022-10-17T22:39:04.310Z,18.10
2022-10-17T22:41:31.559Z,18.10
2022-10-17T22:43:58.947Z,18.10
2022-10-17T22:46:26.373Z,18.10
2022-10-17T22:48:53.826Z,18.10
2022-10-17T22:51:21.296Z,18.10
2022-10-17T22:53:48.546Z,18.10
2022-10-17T22:56:20.849Z,18.10
2022-10-17T22:58:48.281Z,18.00
2022-10-17T23:01:21.523Z,18.00
2022-10-17T23:03:49.287Z,18.00
2022-10-17T23:06:17.119Z,18.00
2022-10-17T23:08:44.673Z,18.00
2022-10-17T23:11:12.334Z,18.00
2022-10-17T23:13:40.713Z,18.00
2022-10-17T23:16:08.672Z,18.00
2022-10-17T23:18:37.447Z,18.00
2022-10-17T23:21:05.459Z,18.00
2022-10-17T23:23:32.676Z,18.00
2022-10-17T23:26:05.169Z,18.00
2022-10-17T23:28:33.657Z,18.00
2022-10-17T23:31:12.667Z,18.00
2022-10-17T23:33:41.276Z,18.00
2022-10-17T23:36:10.502Z,17.90
2022-10-17T23:38:38.726Z,18.00
2022-10-17T23:41:06.045Z,18.00
2022-10-17T23:43:34.218Z,17.90
2022-10-17T23:46:02.226Z,17.90
2022-10-17T23:48:30.084Z,17.90
2022-10-17T23:50:57.658Z,17.90
2022-10-17T23:53:25.686Z,17.90
2022-10-17T23:55:53.180Z,17.90
2022-10-17T23:58:20.393Z,17.90
